createdAt,value
2023-02-15T00:00:49.745Z,94926.69
2023-02-15T00:05:59.863Z,94919.77
2023-02-15T00:11:13.460Z,94914.69
2023-02-15T00:16:20.324Z,94906.62
2023-02-15T00:21:27.215Z,94899.50
2023-02-15T00:26:34.726Z,94902.59
2023-02-15T00:31:42.437Z,94909.62
2023-02-15T00:36:49.853Z,94905.11
2023-02-15T00:41:56.790Z,94902.27
2023-02-15T00:47:03.861Z,94905.34
2023-02-15T00:52:10.733Z,94912.78
2023-02-15T00:57:17.597Z,94908.98
2023-02-15T01:02:24.659Z,94907.48
2023-02-15T01:07:31.874Z,94915.22
2023-02-15T01:12:38.572Z,94907.02
2023-02-15T01:17:47.002Z,94902.09
2023-02-15T01:22:55.272Z,94901.70
2023-02-15T01:28:02.300Z,94890.69
2023-02-15T01:33:09.298Z,94892.30
2023-02-15T01:38:17.054Z,94883.16
2023-02-15T01:43:26.211Z,94873.45
2023-02-15T01:48:33.418Z,94867.47
2023-02-15T01:53:47.174Z,94868.78
2023-02-15T01:58:58.415Z,94854.18
2023-02-15T02:04:24.383Z,94850.69
2023-02-15T02:09:33.657Z,94840.69
2023-02-15T02:14:42.259Z,94837.27
2023-02-15T02:20:05.014Z,94827.59
2023-02-15T02:25:46.392Z,94820.61
2023-02-15T02:31:15.844Z,94820.31
2023-02-15T02:36:32.942Z,94819.92
2023-02-15T02:41:58.800Z,94815.19
2023-02-15T02:47:15.539Z,94814.38
2023-02-15T02:52:49.777Z,94813.44
2023-02-15T02:58:06.442Z,94809.88
2023-02-15T03:03:20.453Z,94622.63
2023-02-15T03:08:31.793Z,94801.23
2023-02-15T03:13:39.298Z,94801.73
2023-02-15T03:18:57.962Z,94803.53
2023-02-15T03:24:16.323Z,94810.28
2023-02-15T03:29:26.332Z,94805.09
2023-02-15T03:34:33.149Z,94805.13
2023-02-15T03:39:44.339Z,94802.49
2023-02-15T03:44:58.558Z,94804.17
2023-02-15T03:50:14.013Z,94797.38
2023-02-15T03:55:20.691Z,94800.12
2023-02-15T04:01:06.381Z,94795.84
2023-02-15T04:06:13.846Z,94806.09
2023-02-15T04:11:21.016Z,94800.77
2023-02-15T04:16:31.329Z,94801.40
2023-02-15T04:21:56.208Z,94800.80
2023-02-15T04:27:04.558Z,94796.56
2023-02-15T04:32:11.472Z,94792.77
2023-02-15T04:37:18.332Z,94792.34
2023-02-15T04:42:25.427Z,94617.28
2023-02-15T04:47:32.479Z,94785.09
2023-02-15T04:52:39.995Z,94780.21
2023-02-15T04:57:46.722Z,94781.85
2023-02-15T05:02:53.521Z,94773.63
2023-02-15T05:08:00.670Z,94772.63
2023-02-15T05:13:07.585Z,94773.44
2023-02-15T05:18:14.447Z,94767.55
2023-02-15T05:23:21.989Z,94768.50
2023-02-15T05:28:31.094Z,94767.34
2023-02-15T05:33:39.266Z,94764.84
2023-02-15T05:38:46.121Z,94764.91
2023-02-15T05:43:53.613Z,94764.58
2023-02-15T05:49:00.331Z,94768.80
2023-02-15T05:54:07.044Z,94767.02
2023-02-15T05:59:14.282Z,94764.34
2023-02-15T06:04:21.694Z,94769.41
2023-02-15T06:09:28.645Z,94774.24
2023-02-15T06:14:37.028Z,94815.88
2023-02-15T06:19:44.034Z,94775.86
2023-02-15T06:24:53.688Z,94778.49
2023-02-15T06:30:00.750Z,94775.16
2023-02-15T06:35:07.933Z,94779.75
2023-02-15T06:40:15.068Z,94596.66
2023-02-15T06:45:21.849Z,94781.00
2023-02-15T06:50:28.777Z,94783.33
2023-02-15T06:55:35.543Z,94783.92
2023-02-15T07:00:42.358Z,94790.36
2023-02-15T07:05:50.115Z,94792.98
2023-02-15T07:11:01.735Z,94795.86
2023-02-15T07:16:08.746Z,94791.47
2023-02-15T07:21:15.656Z,94792.98
2023-02-15T07:26:22.484Z,94786.20
2023-02-15T07:31:29.444Z,94785.22
2023-02-15T07:36:36.057Z,94782.20
2023-02-15T07:41:43.479Z,94775.03
2023-02-15T07:46:50.406Z,94768.00
2023-02-15T07:51:57.361Z,94771.75
2023-02-15T07:57:04.641Z,94768.82
2023-02-15T08:02:16.914Z,94767.73
2023-02-15T08:07:23.643Z,94760.52
2023-02-15T08:12:31.891Z,94759.02
2023-02-15T08:17:41.702Z,94759.31
2023-02-15T08:22:48.467Z,94763.78
2023-02-15T08:27:55.181Z,94758.50
2023-02-15T08:33:02.232Z,94757.58
2023-02-15T08:38:08.960Z,94752.69
2023-02-15T08:43:40.026Z,94747.97
2023-02-15T08:48:24.628Z,94751.03
2023-02-15T08:53:31.518Z,94748.10
2023-02-15T08:58:38.812Z,94753.17
2023-02-15T09:03:46.074Z,94752.02
2023-02-15T09:08:53.770Z,94749.13
2023-02-15T09:14:08.621Z,94745.64
2023-02-15T09:19:15.833Z,94747.52
2023-02-15T09:24:23.238Z,94755.77
2023-02-15T09:29:30.501Z,94762.08
2023-02-15T09:34:37.432Z,94764.44
2023-02-15T09:39:48.831Z,94760.52
2023-02-15T09:45:18.839Z,94749.31
2023-02-15T09:51:00.624Z,94749.77
2023-02-15T09:56:36.740Z,94749.92
2023-02-15T10:02:31.570Z,94748.66
2023-02-15T10:08:01.422Z,94743.80
2023-02-15T10:13:33.630Z,94747.38
2023-02-15T10:18:48.073Z,94740.84
2023-02-15T10:24:21.887Z,94735.00
2023-02-15T10:29:49.188Z,94735.91
2023-02-15T10:35:15.118Z,94729.56
2023-02-15T10:41:01.250Z,94721.48
2023-02-15T10:46:21.245Z,94710.66
2023-02-15T10:51:35.693Z,94711.78
2023-02-15T10:56:58.448Z,94706.13
2023-02-15T11:02:36.720Z,94707.04
2023-02-15T11:07:47.472Z,94699.06
2023-02-15T11:12:54.383Z,94692.34
2023-02-15T11:18:32.238Z,94683.22
2023-02-15T11:23:46.168Z,94676.66
2023-02-15T11:29:06.493Z,94668.84
2023-02-15T11:34:20.208Z,94659.37
2023-02-15T11:39:30.303Z,94653.14
2023-02-15T11:45:03.842Z,94648.30
2023-02-15T11:50:18.006Z,94642.44
2023-02-15T11:55:26.727Z,94627.77
2023-02-15T12:00:46.422Z,94628.73
2023-02-15T12:05:57.741Z,94626.23
2023-02-15T12:11:15.200Z,94612.70
2023-02-15T12:16:21.832Z,94609.84
2023-02-15T12:21:42.313Z,94613.19
2023-02-15T12:27:02.188Z,94611.36
2023-02-15T12:32:16.062Z,94604.50
2023-02-15T12:37:27.722Z,94605.66
2023-02-15T12:42:46.324Z,94593.95
2023-02-15T12:48:13.963Z,94590.89
2023-02-15T12:53:34.448Z,94589.92
2023-02-15T12:58:45.832Z,94591.63
2023-02-15T13:04:06.019Z,94581.45
2023-02-15T13:09:30.314Z,94574.28
2023-02-15T13:14:38.142Z,94575.33
2023-02-15T13:19:50.142Z,94567.70
2023-02-15T13:25:04.055Z,94556.98
2023-02-15T13:30:12.804Z,94560.48
2023-02-15T13:35:20.864Z,94556.76
2023-02-15T13:40:46.982Z,94566.25
2023-02-15T13:46:28.239Z,94562.01
2023-02-15T13:51:45.480Z,94555.09
2023-02-15T13:57:26.892Z,94558.61
2023-02-15T14:02:54.434Z,94555.48
2023-02-15T14:08:31.258Z,94557.22
2023-02-15T14:13:47.903Z,94548.61
2023-02-15T14:19:02.489Z,94560.73
2023-02-15T14:24:44.568Z,94559.33
2023-02-15T14:30:03.094Z,94566.34
2023-02-15T14:35:19.977Z,94564.15
2023-02-15T14:40:57.512Z,94561.59
2023-02-15T14:46:26.516Z,94558.98
2023-02-15T14:51:49.476Z,94562.19
2023-02-15T14:57:07.679Z,94562.53
2023-02-15T15:02:18.646Z,94556.92
2023-02-15T15:07:41.330Z,94557.70
2023-02-15T15:13:02.333Z,94556.52
2023-02-15T15:18:15.985Z,94551.66
2023-02-15T15:23:27.276Z,94552.20
2023-02-15T15:28:41.775Z,94552.18
2023-02-15T15:34:07.946Z,94542.73
2023-02-15T15:39:41.171Z,94545.23
2023-02-15T15:45:07.459Z,94545.36
2023-02-15T15:50:21.106Z,94539.75
2023-02-15T15:55:31.700Z,94522.93
2023-02-15T16:00:48.792Z,94530.52
2023-02-15T16:06:00.565Z,94521.97
2023-02-15T16:11:24.109Z,94526.91
2023-02-15T16:16:33.338Z,94521.69
2023-02-15T16:21:41.192Z,94523.89
2023-02-15T16:27:17.611Z,94519.45
2023-02-15T16:32:28.542Z,94530.41
2023-02-15T16:37:38.048Z,94532.40
2023-02-15T16:42:45.056Z,94531.86
2023-02-15T16:47:56.419Z,94541.32
2023-02-15T16:53:05.238Z,94543.39
2023-02-15T16:58:20.162Z,94544.64
2023-02-15T17:03:28.761Z,94553.70
2023-02-15T17:08:45.128Z,94547.88
2023-02-15T17:14:11.362Z,94547.02
2023-02-15T17:19:22.711Z,94543.27
2023-02-15T17:24:36.860Z,94553.84
2023-02-15T17:29:47.646Z,94548.14
2023-02-15T17:35:11.473Z,94552.39
2023-02-15T17:40:31.387Z,94552.25
2023-02-15T17:45:48.351Z,94553.17
2023-02-15T17:50:55.542Z,94542.41
2023-02-15T17:56:04.197Z,94543.41
2023-02-15T18:01:35.708Z,94550.86
2023-02-15T18:07:02.872Z,94544.05
2023-02-15T18:12:39.311Z,94553.30
2023-02-15T18:17:49.503Z,94557.01
2023-02-15T18:22:56.958Z,94555.27
2023-02-15T18:28:03.737Z,94554.05
2023-02-15T18:33:27.172Z,94549.12
2023-02-15T18:38:34.037Z,94551.13
2023-02-15T18:43:41.035Z,94550.36
2023-02-15T18:48:47.985Z,94553.28
2023-02-15T18:53:55.976Z,94553.74
2023-02-15T18:59:02.873Z,94552.56
2023-02-15T19:04:09.909Z,94558.78
2023-02-15T19:09:26.493Z,94558.78
2023-02-15T19:14:35.147Z,94382.06
2023-02-15T19:19:42.079Z,94550.79
2023-02-15T19:24:50.659Z,94546.17
2023-02-15T19:30:03.623Z,94547.52
2023-02-15T19:35:21.335Z,94543.91
2023-02-15T19:40:34.782Z,94538.95
2023-02-15T19:45:41.555Z,94542.76
2023-02-15T19:50:53.104Z,94539.14
2023-02-15T19:56:00.037Z,94537.15
2023-02-15T20:01:07.365Z,94540.33
2023-02-15T20:06:19.044Z,94538.41
2023-02-15T20:11:26.831Z,94532.03
2023-02-15T20:16:33.761Z,94533.03
2023-02-15T20:21:44.260Z,94531.41
2023-02-15T20:26:51.595Z,94532.61
2023-02-15T20:32:00.421Z,94529.19
2023-02-15T20:37:09.652Z,94526.95
2023-02-15T20:42:17.147Z,94550.67
2023-02-15T20:47:27.591Z,94530.48
2023-02-15T20:52:34.283Z,94531.91
2023-02-15T20:57:41.440Z,94517.13
2023-02-15T21:02:50.545Z,94515.33
2023-02-15T21:07:58.196Z,94512.91
2023-02-15T21:13:05.322Z,94510.31
2023-02-15T21:18:34.312Z,94511.63
2023-02-15T21:23:46.406Z,94509.78
2023-02-15T21:28:53.442Z,94502.17
2023-02-15T21:34:00.361Z,94497.94
2023-02-15T21:39:08.039Z,94496.95
2023-02-15T21:44:40.594Z,94490.39
2023-02-15T21:49:47.762Z,94479.31
2023-02-15T21:54:54.845Z,94475.33
2023-02-15T22:00:01.620Z,94469.73
2023-02-15T22:05:12.805Z,94476.96
2023-02-15T22:10:22.341Z,94302.93
2023-02-15T22:15:37.902Z,94471.88
2023-02-15T22:20:44.960Z,94472.59
2023-02-15T22:25:59.709Z,94469.93
2023-02-15T22:31:10.576Z,94464.01
2023-02-15T22:36:30.508Z,94459.17
2023-02-15T22:41:37.371Z,94452.22
2023-02-15T22:46:44.324Z,94449.58
2023-02-15T22:51:52.892Z,94445.66
2023-02-15T22:57:01.497Z,94449.72
2023-02-15T23:02:09.902Z,94456.34
2023-02-15T23:07:19.989Z,94453.00
2023-02-15T23:12:34.102Z,94453.72
2023-02-15T23:17:40.926Z,94452.83
2023-02-15T23:22:47.990Z,94450.23
2023-02-15T23:27:57.798Z,94449.08
2023-02-15T23:33:04.763Z,94439.13
2023-02-15T23:38:27.244Z,94447.34
2023-02-15T23:43:34.125Z,94435.37
2023-02-15T23:48:42.397Z,94437.77
2023-02-15T23:53:49.738Z,94434.91
2023-02-15T23:58:56.815Z,94434.39
